sensor_id;sensor_type;location;lat;lon;timestamp;P1;durP1;ratioP1;P2;durP2;ratioP2
20593;SDS011;10455;48.732;10.266;2023-04-03T00:03:03;9.50;;;8.70;;
20593;SDS011;10455;48.732;10.266;2023-04-03T00:08:05;8.77;;;8.07;;
20593;SDS011;10455;48.732;10.266;2023-04-03T00:13:09;8.93;;;8.07;;
20593;SDS011;10455;48.732;10.266;2023-04-03T00:18:12;9.00;;;8.10;;
20593;SDS011;10455;48.732;10.266;2023-04-03T00:23:14;9.17;;;8.37;;
20593;SDS011;10455;48.732;10.266;2023-04-03T00:28:17;8.77;;;7.97;;
20593;SDS011;10455;48.732;10.266;2023-04-03T00:33:19;8.87;;;8.17;;
20593;SDS011;10455;48.732;10.266;2023-04-03T00:38:22;7.87;;;7.23;;
20593;SDS011;10455;48.732;10.266;2023-04-03T00:43:26;8.77;;;8.07;;
20593;SDS011;10455;48.732;10.266;2023-04-03T00:48:29;8.37;;;7.70;;
20593;SDS011;10455;48.732;10.266;2023-04-03T00:53:34;8.43;;;7.50;;
20593;SDS011;10455;48.732;10.266;2023-04-03T00:58:42;8.50;;;7.77;;
20593;SDS011;10455;48.732;10.266;2023-04-03T01:03:48;8.50;;;7.73;;
20593;SDS011;10455;48.732;10.266;2023-04-03T01:08:50;9.20;;;8.40;;
20593;SDS011;10455;48.732;10.266;2023-04-03T01:13:54;8.43;;;7.73;;
20593;SDS011;10455;48.732;10.266;2023-04-03T01:18:56;8.80;;;7.93;;
20593;SDS011;10455;48.732;10.266;2023-04-03T01:24:02;8.37;;;7.60;;
20593;SDS011;10455;48.732;10.266;2023-04-03T01:29:18;9.10;;;7.57;;
20593;SDS011;10455;48.732;10.266;2023-04-03T01:34:22;9.03;;;8.17;;
20593;SDS011;10455;48.732;10.266;2023-04-03T01:39:24;8.43;;;7.73;;
20593;SDS011;10455;48.732;10.266;2023-04-03T01:44:26;8.90;;;8.00;;
20593;SDS011;10455;48.732;10.266;2023-04-03T01:49:30;7.67;;;6.90;;
20593;SDS011;10455;48.732;10.266;2023-04-03T01:54:31;8.13;;;7.43;;
20593;SDS011;10455;48.732;10.266;2023-04-03T01:59:33;8.43;;;7.50;;
20593;SDS011;10455;48.732;10.266;2023-04-03T02:04:37;7.83;;;7.17;;
20593;SDS011;10455;48.732;10.266;2023-04-03T02:09:38;7.27;;;6.57;;
20593;SDS011;10455;48.732;10.266;2023-04-03T02:14:40;7.37;;;6.80;;
20593;SDS011;10455;48.732;10.266;2023-04-03T02:19:44;7.77;;;7.07;;
20593;SDS011;10455;48.732;10.266;2023-04-03T02:24:45;8.07;;;7.27;;
20593;SDS011;10455;48.732;10.266;2023-04-03T02:29:47;6.50;;;5.97;;
20593;SDS011;10455;48.732;10.266;2023-04-03T02:34:51;6.93;;;6.33;;
20593;SDS011;10455;48.732;10.266;2023-04-03T02:39:53;9.37;;;6.40;;
20593;SDS011;10455;48.732;10.266;2023-04-03T02:44:55;7.10;;;6.53;;
20593;SDS011;10455;48.732;10.266;2023-04-03T02:49:58;6.77;;;6.27;;
20593;SDS011;10455;48.732;10.266;2023-04-03T02:55:00;7.00;;;6.30;;
20593;SDS011;10455;48.732;10.266;2023-04-03T03:00:02;7.43;;;6.83;;
20593;SDS011;10455;48.732;10.266;2023-04-03T03:05:07;7.00;;;6.30;;
20593;SDS011;10455;48.732;10.266;2023-04-03T03:10:09;6.93;;;6.33;;
20593;SDS011;10455;48.732;10.266;2023-04-03T03:15:11;6.70;;;6.20;;
20593;SDS011;10455;48.732;10.266;2023-04-03T03:20:15;7.50;;;6.90;;
20593;SDS011;10455;48.732;10.266;2023-04-03T03:25:17;7.10;;;6.50;;
20593;SDS011;10455;48.732;10.266;2023-04-03T03:30:19;7.53;;;6.73;;
20593;SDS011;10455;48.732;10.266;2023-04-03T03:35:22;7.27;;;6.67;;
20593;SDS011;10455;48.732;10.266;2023-04-03T03:40:24;7.00;;;6.40;;
20593;SDS011;10455;48.732;10.266;2023-04-03T03:45:26;6.80;;;6.10;;
20593;SDS011;10455;48.732;10.266;2023-04-03T03:50:29;8.00;;;6.70;;
20593;SDS011;10455;48.732;10.266;2023-04-03T03:55:31;7.67;;;7.07;;
20593;SDS011;10455;48.732;10.266;2023-04-03T04:00:33;10.00;;;9.00;;
20593;SDS011;10455;48.732;10.266;2023-04-03T04:05:36;7.63;;;6.93;;
20593;SDS011;10455;48.732;10.266;2023-04-03T04:10:38;7.63;;;7.03;;
20593;SDS011;10455;48.732;10.266;2023-04-03T04:15:40;7.27;;;6.70;;
20593;SDS011;10455;48.732;10.266;2023-04-03T04:20:45;7.17;;;6.47;;
20593;SDS011;10455;48.732;10.266;2023-04-03T04:25:48;7.70;;;7.00;;
20593;SDS011;10455;48.732;10.266;2023-04-03T04:30:50;8.10;;;7.33;;
20593;SDS011;10455;48.732;10.266;2023-04-03T04:35:53;8.13;;;7.27;;
20593;SDS011;10455;48.732;10.266;2023-04-03T04:40:55;8.03;;;7.40;;
20593;SDS011;10455;48.732;10.266;2023-04-03T04:51:02;7.87;;;7.27;;
20593;SDS011;10455;48.732;10.266;2023-04-03T04:56:05;8.77;;;8.07;;
20593;SDS011;10455;48.732;10.266;2023-04-03T05:01:08;8.60;;;7.80;;
20593;SDS011;10455;48.732;10.266;2023-04-03T05:06:12;8.50;;;7.80;;
20593;SDS011;10455;48.732;10.266;2023-04-03T05:11:14;7.50;;;6.90;;
20593;SDS011;10455;48.732;10.266;2023-04-03T05:16:16;8.33;;;7.60;;
20593;SDS011;10455;48.732;10.266;2023-04-03T05:21:19;7.70;;;7.10;;
20593;SDS011;10455;48.732;10.266;2023-04-03T05:26:23;7.60;;;6.93;;
20593;SDS011;10455;48.732;10.266;2023-04-03T05:31:25;7.67;;;6.97;;
20593;SDS011;10455;48.732;10.266;2023-04-03T05:36:30;7.80;;;7.10;;
20593;SDS011;10455;48.732;10.266;2023-04-03T05:41:32;7.07;;;6.47;;
20593;SDS011;10455;48.732;10.266;2023-04-03T05:46:34;7.30;;;6.63;;
20593;SDS011;10455;48.732;10.266;2023-04-03T05:51:38;7.10;;;6.50;;
20593;SDS011;10455;48.732;10.266;2023-04-03T05:56:41;7.00;;;6.50;;
20593;SDS011;10455;48.732;10.266;2023-04-03T06:01:43;6.77;;;6.27;;
20593;SDS011;10455;48.732;10.266;2023-04-03T06:06:48;7.43;;;6.83;;
20593;SDS011;10455;48.732;10.266;2023-04-03T06:11:51;6.97;;;6.47;;
20593;SDS011;10455;48.732;10.266;2023-04-03T06:16:53;6.37;;;5.77;;
20593;SDS011;10455;48.732;10.266;2023-04-03T06:21:57;6.53;;;5.93;;
20593;SDS011;10455;48.732;10.266;2023-04-03T06:26:59;8.20;;;7.40;;
20593;SDS011;10455;48.732;10.266;2023-04-03T06:32:00;6.43;;;5.93;;
20593;SDS011;10455;48.732;10.266;2023-04-03T06:37:04;6.50;;;6.00;;
20593;SDS011;10455;48.732;10.266;2023-04-03T06:42:06;6.70;;;6.20;;
20593;SDS011;10455;48.732;10.266;2023-04-03T06:47:08;7.47;;;6.77;;
20593;SDS011;10455;48.732;10.266;2023-04-03T06:52:14;7.40;;;6.70;;
20593;SDS011;10455;48.732;10.266;2023-04-03T06:57:16;7.43;;;6.73;;
20593;SDS011;10455;48.732;10.266;2023-04-03T07:02:18;7.70;;;6.90;;
20593;SDS011;10455;48.732;10.266;2023-04-03T07:07:22;7.33;;;6.50;;
20593;SDS011;10455;48.732;10.266;2023-04-03T07:12:24;7.07;;;6.37;;
20593;SDS011;10455;48.732;10.266;2023-04-03T07:17:26;6.83;;;6.23;;
20593;SDS011;10455;48.732;10.266;2023-04-03T07:22:29;6.87;;;6.10;;
20593;SDS011;10455;48.732;10.266;2023-04-03T07:27:31;8.23;;;6.40;;
20593;SDS011;10455;48.732;10.266;2023-04-03T07:32:33;7.67;;;7.07;;
20593;SDS011;10455;48.732;10.266;2023-04-03T07:37:37;8.70;;;7.60;;
20593;SDS011;10455;48.732;10.266;2023-04-03T07:42:39;9.10;;;8.20;;
20593;SDS011;10455;48.732;10.266;2023-04-03T07:47:40;8.97;;;8.07;;
20593;SDS011;10455;48.732;10.266;2023-04-03T07:52:44;7.70;;;7.00;;
20593;SDS011;10455;48.732;10.266;2023-04-03T07:57:46;8.10;;;7.40;;
20593;SDS011;10455;48.732;10.266;2023-04-03T08:02:48;7.40;;;6.77;;
20593;SDS011;10455;48.732;10.266;2023-04-03T08:07:53;10.63;;;6.77;;
20593;SDS011;10455;48.732;10.266;2023-04-03T08:12:55;8.00;;;7.00;;
20593;SDS011;10455;48.732;10.266;2023-04-03T08:17:57;7.27;;;6.67;;
20593;SDS011;10455;48.732;10.266;2023-04-03T08:23:00;8.00;;;7.00;;
20593;SDS011;10455;48.732;10.266;2023-04-03T08:28:02;7.37;;;6.47;;
20593;SDS011;10455;48.732;10.266;2023-04-03T08:33:04;7.90;;;7.00;;
20593;SDS011;10455;48.732;10.266;2023-04-03T08:38:07;7.40;;;6.63;;
20593;SDS011;10455;48.732;10.266;2023-04-03T08:43:16;7.60;;;6.83;;
20593;SDS011;10455;48.732;10.266;2023-04-03T08:48:30;7.33;;;6.60;;
20593;SDS011;10455;48.732;10.266;2023-04-03T08:53:37;7.20;;;6.60;;
20593;SDS011;10455;48.732;10.266;2023-04-03T09:03:46;7.00;;;6.23;;
20593;SDS011;10455;48.732;10.266;2023-04-03T09:08:50;9.30;;;6.70;;
20593;SDS011;10455;48.732;10.266;2023-04-03T09:13:59;6.60;;;6.00;;
20593;SDS011;10455;48.732;10.266;2023-04-03T09:19:06;7.13;;;5.40;;
20593;SDS011;10455;48.732;10.266;2023-04-03T09:24:17;6.87;;;6.27;;
20593;SDS011;10455;48.732;10.266;2023-04-03T09:29:21;5.90;;;5.33;;
20593;SDS011;10455;48.732;10.266;2023-04-03T09:34:25;5.73;;;5.33;;
20593;SDS011;10455;48.732;10.266;2023-04-03T09:39:30;6.20;;;5.70;;
20593;SDS011;10455;48.732;10.266;2023-04-03T09:44:33;6.60;;;5.97;;
20593;SDS011;10455;48.732;10.266;2023-04-03T09:49:37;7.73;;;6.37;;
20593;SDS011;10455;48.732;10.266;2023-04-03T09:54:40;6.83;;;6.20;;
20593;SDS011;10455;48.732;10.266;2023-04-03T09:59:44;6.07;;;5.47;;
20593;SDS011;10455;48.732;10.266;2023-04-03T10:04:48;6.90;;;6.30;;
20593;SDS011;10455;48.732;10.266;2023-04-03T10:09:55;8.23;;;7.43;;
20593;SDS011;10455;48.732;10.266;2023-04-03T10:15:11;7.53;;;6.63;;
20593;SDS011;10455;48.732;10.266;2023-04-03T10:20:21;7.33;;;6.73;;
20593;SDS011;10455;48.732;10.266;2023-04-03T10:25:37;8.87;;;7.90;;
20593;SDS011;10455;48.732;10.266;2023-04-03T10:30:46;6.63;;;5.90;;
20593;SDS011;10455;48.732;10.266;2023-04-03T10:35:59;6.17;;;5.67;;
20593;SDS011;10455;48.732;10.266;2023-04-03T10:41:11;7.10;;;6.40;;
20593;SDS011;10455;48.732;10.266;2023-04-03T10:46:20;7.83;;;6.33;;
20593;SDS011;10455;48.732;10.266;2023-04-03T10:51:28;7.63;;;6.87;;
20593;SDS011;10455;48.732;10.266;2023-04-03T10:56:37;7.37;;;6.67;;
20593;SDS011;10455;48.732;10.266;2023-04-03T11:01:42;7.43;;;6.70;;
20593;SDS011;10455;48.732;10.266;2023-04-03T11:06:48;7.40;;;6.40;;
20593;SDS011;10455;48.732;10.266;2023-04-03T11:11:55;6.73;;;6.10;;
20593;SDS011;10455;48.732;10.266;2023-04-03T11:17:11;7.30;;;6.70;;
20593;SDS011;10455;48.732;10.266;2023-04-03T11:22:36;5.80;;;5.27;;
20593;SDS011;10455;48.732;10.266;2023-04-03T11:46:24;5.73;;;5.23;;
20593;SDS011;10455;48.732;10.266;2023-04-03T11:58:34;8.90;;;6.00;;
20593;SDS011;10455;48.732;10.266;2023-04-03T12:32:40;5.70;;;5.00;;
20593;SDS011;10455;48.732;10.266;2023-04-03T12:43:49;5.20;;;4.80;;
20593;SDS011;10455;48.732;10.266;2023-04-03T12:49:14;10.27;;;4.87;;
20593;SDS011;10455;48.732;10.266;2023-04-03T12:54:30;4.70;;;4.40;;
20593;SDS011;10455;48.732;10.266;2023-04-03T12:59:36;5.17;;;4.50;;
20593;SDS011;10455;48.732;10.266;2023-04-03T13:04:46;5.20;;;4.67;;
20593;SDS011;10455;48.732;10.266;2023-04-03T13:10:42;6.50;;;5.37;;
20593;SDS011;10455;48.732;10.266;2023-04-03T13:16:54;5.20;;;4.73;;
20593;SDS011;10455;48.732;10.266;2023-04-03T13:21:58;5.67;;;4.90;;
20593;SDS011;10455;48.732;10.266;2023-04-03T13:27:06;5.30;;;4.80;;
20593;SDS011;10455;48.732;10.266;2023-04-03T13:32:16;5.07;;;4.70;;
20593;SDS011;10455;48.732;10.266;2023-04-03T13:38:22;6.27;;;5.67;;
20593;SDS011;10455;48.732;10.266;2023-04-03T13:44:31;4.90;;;4.50;;
20593;SDS011;10455;48.732;10.266;2023-04-03T14:01:51;4.70;;;4.30;;
20593;SDS011;10455;48.732;10.266;2023-04-03T14:07:04;8.97;;;5.13;;
20593;SDS011;10455;48.732;10.266;2023-04-03T14:12:24;4.70;;;4.23;;
20593;SDS011;10455;48.732;10.266;2023-04-03T14:17:29;5.40;;;4.90;;
20593;SDS011;10455;48.732;10.266;2023-04-03T14:22:32;4.50;;;4.10;;
20593;SDS011;10455;48.732;10.266;2023-04-03T14:27:35;8.17;;;5.33;;
20593;SDS011;10455;48.732;10.266;2023-04-03T14:32:40;4.90;;;4.40;;
20593;SDS011;10455;48.732;10.266;2023-04-03T14:37:43;5.30;;;4.60;;
20593;SDS011;10455;48.732;10.266;2023-04-03T14:42:45;5.40;;;4.90;;
20593;SDS011;10455;48.732;10.266;2023-04-03T14:47:51;5.27;;;4.77;;
20593;SDS011;10455;48.732;10.266;2023-04-03T14:53:10;4.70;;;4.40;;
20593;SDS011;10455;48.732;10.266;2023-04-03T14:58:15;5.17;;;4.67;;
20593;SDS011;10455;48.732;10.266;2023-04-03T15:03:20;4.82;;;3.75;;
20593;SDS011;10455;48.732;10.266;2023-04-03T15:08:23;5.50;;;3.87;;
20593;SDS011;10455;48.732;10.266;2023-04-03T15:13:29;4.73;;;4.00;;
20593;SDS011;10455;48.732;10.266;2023-04-03T15:30:28;5.17;;;4.70;;
20593;SDS011;10455;48.732;10.266;2023-04-03T15:35:51;4.73;;;4.43;;
20593;SDS011;10455;48.732;10.266;2023-04-03T15:53:25;5.10;;;4.43;;
20593;SDS011;10455;48.732;10.266;2023-04-03T15:58:27;6.73;;;5.23;;
20593;SDS011;10455;48.732;10.266;2023-04-03T16:03:29;5.03;;;4.20;;
20593;SDS011;10455;48.732;10.266;2023-04-03T16:08:33;5.70;;;4.57;;
20593;SDS011;10455;48.732;10.266;2023-04-03T16:13:36;6.10;;;5.60;;
20593;SDS011;10455;48.732;10.266;2023-04-03T16:18:38;5.60;;;5.03;;
20593;SDS011;10455;48.732;10.266;2023-04-03T16:23:42;5.53;;;5.00;;
20593;SDS011;10455;48.732;10.266;2023-04-03T16:28:44;6.00;;;5.50;;
20593;SDS011;10455;48.732;10.266;2023-04-03T16:33:46;5.33;;;4.83;;
20593;SDS011;10455;48.732;10.266;2023-04-03T16:38:49;5.57;;;5.00;;
20593;SDS011;10455;48.732;10.266;2023-04-03T16:43:51;5.50;;;5.10;;
20593;SDS011;10455;48.732;10.266;2023-04-03T16:48:53;5.90;;;5.40;;
20593;SDS011;10455;48.732;10.266;2023-04-03T16:53:56;5.27;;;4.63;;
20593;SDS011;10455;48.732;10.266;2023-04-03T16:58:58;5.30;;;4.90;;
20593;SDS011;10455;48.732;10.266;2023-04-03T17:04:00;6.03;;;4.77;;
20593;SDS011;10455;48.732;10.266;2023-04-03T17:09:04;5.57;;;4.77;;
20593;SDS011;10455;48.732;10.266;2023-04-03T17:14:06;6.53;;;5.50;;
20593;SDS011;10455;48.732;10.266;2023-04-03T17:19:08;6.87;;;6.17;;
20593;SDS011;10455;48.732;10.266;2023-04-03T17:24:13;5.93;;;5.33;;
20593;SDS011;10455;48.732;10.266;2023-04-03T17:29:15;7.37;;;4.73;;
20593;SDS011;10455;48.732;10.266;2023-04-03T17:34:17;5.67;;;5.17;;
20593;SDS011;10455;48.732;10.266;2023-04-03T17:39:21;5.60;;;5.10;;
20593;SDS011;10455;48.732;10.266;2023-04-03T17:44:23;6.33;;;5.67;;
20593;SDS011;10455;48.732;10.266;2023-04-03T17:49:42;7.33;;;5.30;;
20593;SDS011;10455;48.732;10.266;2023-04-03T20:07:52;5.50;;;5.03;;
20593;SDS011;10455;48.732;10.266;2023-04-03T20:18:25;5.43;;;5.00;;
20593;SDS011;10455;48.732;10.266;2023-04-03T20:40:30;5.00;;;4.50;;
20593;SDS011;10455;48.732;10.266;2023-04-03T20:45:32;7.00;;;4.73;;
20593;SDS011;10455;48.732;10.266;2023-04-03T20:50:34;6.60;;;4.90;;
20593;SDS011;10455;48.732;10.266;2023-04-03T20:55:37;5.87;;;4.97;;
20593;SDS011;10455;48.732;10.266;2023-04-03T21:00:40;5.60;;;4.80;;
20593;SDS011;10455;48.732;10.266;2023-04-03T21:05:42;6.93;;;5.20;;
20593;SDS011;10455;48.732;10.266;2023-04-03T21:21:27;5.17;;;4.77;;
20593;SDS011;10455;48.732;10.266;2023-04-03T21:26:30;4.90;;;4.50;;
20593;SDS011;10455;48.732;10.266;2023-04-03T21:31:52;6.37;;;5.17;;
20593;SDS011;10455;48.732;10.266;2023-04-03T21:37:01;11.93;;;10.23;;
20593;SDS011;10455;48.732;10.266;2023-04-03T21:42:03;4.90;;;4.50;;
20593;SDS011;10455;48.732;10.266;2023-04-03T21:47:06;4.80;;;4.40;;
20593;SDS011;10455;48.732;10.266;2023-04-03T21:52:09;7.77;;;4.80;;
20593;SDS011;10455;48.732;10.266;2023-04-03T21:57:11;6.10;;;5.10;;
20593;SDS011;10455;48.732;10.266;2023-04-03T22:02:13;4.70;;;4.30;;
20593;SDS011;10455;48.732;10.266;2023-04-03T22:07:16;5.27;;;4.83;;
20593;SDS011;10455;48.732;10.266;2023-04-03T22:12:18;8.23;;;5.10;;
20593;SDS011;10455;48.732;10.266;2023-04-03T22:17:20;5.30;;;4.80;;
20593;SDS011;10455;48.732;10.266;2023-04-03T22:22:24;5.40;;;5.00;;
20593;SDS011;10455;48.732;10.266;2023-04-03T22:27:26;5.20;;;4.80;;
20593;SDS011;10455;48.732;10.266;2023-04-03T22:32:28;7.07;;;5.13;;
20593;SDS011;10455;48.732;10.266;2023-04-03T22:37:31;6.00;;;5.40;;
20593;SDS011;10455;48.732;10.266;2023-04-03T22:42:33;5.57;;;5.00;;
20593;SDS011;10455;48.732;10.266;2023-04-03T22:47:35;5.77;;;5.33;;
20593;SDS011;10455;48.732;10.266;2023-04-03T22:52:38;5.90;;;5.40;;
20593;SDS011;10455;48.732;10.266;2023-04-03T22:57:40;7.67;;;6.17;;
20593;SDS011;10455;48.732;10.266;2023-04-03T23:02:45;6.93;;;6.30;;
20593;SDS011;10455;48.732;10.266;2023-04-03T23:07:48;7.43;;;6.13;;
20593;SDS011;10455;48.732;10.266;2023-04-03T23:17:54;6.60;;;6.00;;
20593;SDS011;10455;48.732;10.266;2023-04-03T23:22:57;6.53;;;6.03;;
20593;SDS011;10455;48.732;10.266;2023-04-03T23:27:59;6.67;;;6.07;;
20593;SDS011;10455;48.732;10.266;2023-04-03T23:33:01;6.33;;;5.83;;
20593;SDS011;10455;48.732;10.266;2023-04-03T23:38:04;6.53;;;6.00;;
20593;SDS011;10455;48.732;10.266;2023-04-03T23:43:06;7.67;;;6.33;;
20593;SDS011;10455;48.732;10.266;2023-04-03T23:48:08;7.30;;;6.23;;
20593;SDS011;10455;48.732;10.266;2023-04-03T23:53:11;6.97;;;6.37;;
20593;SDS011;10455;48.732;10.266;2023-04-03T23:58:13;7.20;;;6.53;;
